METAR Data
IDs: Format: Raw Decoded Include TAF

Data at: 1915 UTC 14 Dec 2018

KTYR 141853Z 32014KT 10SM OVC011 08/07 A2987 RMK AO2 RAB09E43 CIG 008V015 SLP112 P0001 T00780067
KTYR 141753Z 32015G22KT 10SM OVC012 08/06 A2986 RMK AO2 SLP112 T00830056 10089 20078 50003
KTYR 141700Z 31018G25KT 10SM OVC011 08/06 A2986 RMK AO2 T00830061
KTYR 141653Z 32018G25KT 10SM OVC009 08/06 A2987 RMK AO2 SLP113 T00830061
KTYR 141605Z 32017G23KT 10SM OVC009 08/06 A2986 RMK AO2 T00830061
KTYR 141553Z 31015KT 6SM BR OVC010 08/07 A2985 RMK AO2 SLP106 T00830067
KTYR 141453Z 33010KT 3SM BR OVC005 08/07 A2986 RMK AO2 SLP108 T00780067 53030
KTYR 141428Z 34008G19KT 3SM BR OVC005 08/07 A2985 RMK AO2 PRESRR T00780067
KTYR 141353Z AUTO 34010KT 7SM OVC004 08/07 A2982 RMK AO2 LTG DSNT S PRESRR SLP097 T00780067
KTYR 141253Z AUTO 32014G20KT 5SM BR OVC003 08/07 A2976 RMK AO2 SLP076 T00780072
KTYR 141153Z AUTO 32008KT 7SM OVC003 08/07 A2976 RMK AO2 SLP076 70012 T00830072 10094 20083 53001
KTYR 141053Z AUTO 30010KT 5SM BR OVC003 08/08 A2975 RMK AO2 SLP071 T00830078
KTYR 141014Z AUTO 30008KT 3SM BR OVC002 08/08 A2975 RMK AO2 T00830078
KTYR 140953Z AUTO 31005KT 2 1/2SM BR OVC003 08/08 A2976 RMK AO2 SLP075 T00830078
KTYR 140853Z AUTO 32005KT 3SM BR OVC002 08/08 A2976 RMK AO2 SLP075 T00830078 50007
KTYR 140837Z AUTO 33005KT 2SM BR OVC002 08/08 A2977 RMK AO2 T00830078
KTYR 140753Z AUTO 34005KT 5SM BR OVC002 09/08 A2976 RMK AO2 SLP076 T00890078
KTYR 140653Z AUTO 34005KT 5SM BR OVC002 09/08 A2974 RMK AO2 SLP068 T00890083
KTYR 140606Z AUTO 32008KT 10SM OVC004 09/08 A2975 RMK AO2 T00890078
KTYR 140553Z AUTO 32009KT 10SM OVC005 09/08 A2974 RMK AO2 CIG 003V006 SLP068 T00940083 10156 20094 401780094 51005
KTYR 140453Z AUTO 32010KT 10SM OVC009 09/07 A2973 RMK AO2 SLP065 T00940072
KTYR 140445Z AUTO 31009KT 10SM OVC009 09/08 A2973 RMK AO2 T00940078
KTYR 140407Z AUTO 28008KT 10SM BKN011 10/08 A2974 RMK AO2 T01000083
KTYR 140353Z AUTO 27004KT 10SM SCT011 11/09 A2974 RMK AO2 SLP068 T01060089
KTYR 140344Z AUTO 27005KT 10SM FEW011 10/08 A2974 RMK AO2 T01000083
KTYR 140316Z AUTO 29008KT 10SM BKN011 11/08 A2974 RMK AO2 T01060083
KTYR 140253Z 29006KT 10SM FEW015 11/07 A2973 RMK AO2 SLP063 T01060072 51012
KTYR 140153Z 26006KT 10SM CLR 12/08 A2972 RMK AO2 SLP062 T01170078
KTYR 140053Z 27006KT 10SM CLR 13/10 A2971 RMK AO2 SLP058 T01330100
KTYR 132353Z 26008KT 10SM CLR 16/12 A2969 RMK AO2 LTG DSNT NE AND E RAE2257 SLP050 P0000 60005 T01560122 10178 20156 53016
KTYR 132325Z 24007KT 10SM FEW004 SCT011 BKN030 16/15 A2967 RMK AO2 LTG DSNT E AND SE RAE2257 P0000 T01610150
KTYR 132315Z 24006KT 10SM SCT004 BKN012 OVC070 17/16 A2967 RMK AO2 LTG DSNT SE RAE2257 P0000 T01670156
KTYR 132253Z 23005KT 10SM RA SCT006 BKN026 OVC110 17/16 A2966 RMK AO2 SLP040 P0001 T01670156
KTYR 132153Z 17007KT 6SM RA BR OVC006 17/15 A2965 RMK AO2 RAB51 SLP037 P0003 T01670150
KTYR 132056Z 13008KT 10SM BKN007 OVC013 17/14 A2965 RMK AO2 LTG DSNT SW AND W CIG 007V011 T01670144
KTYR 132053Z 14007KT 10SM BKN010 OVC013 17/14 A2964 RMK AO2 LTG DSNT SW AND W CIG 007V012 SLP034 60001 T01670144 56019
KTYR 132012Z 13009KT 10SM BKN012 OVC018 17/14 A2965 RMK AO2 T01670139
KTYR 131953Z 13012KT 10SM OVC020 17/14 A2965 RMK AO2 SLP035 T01720139
KTYR 131853Z 14012KT 10SM OVC025 17/14 A2967 RMK AO2 SLP040 P0001 T01720139
KTYR 131805Z 14012KT 10SM BKN023 OVC029 17/13 A2969 RMK AO2 T01670133
KTYR 131753Z 14012G21KT 10SM FEW015 SCT024 BKN030 17/14 A2970 RMK AO2 RAB15E24 SLP053 P0000 60007 T01720139 10178 20156 58018
KTYR 131728Z 13016KT 10SM FEW012 FEW017 SCT036 18/14 A2970 RMK AO2 RAB15E24 P0000 T01780144
KTYR 131653Z 14017KT 7SM SCT009 BKN013 OVC039 16/14 A2973 RMK AO2 RAB1558E23 SLP065 P0003 T01610144
KTYR 131641Z 14013G19KT 7SM SCT009 BKN013 OVC039 16/14 A2973 RMK AO2 RAB1558E23 P0003 T01610144
KTYR 131633Z 14013G20KT 10SM SCT011 OVC037 16/14 A2974 RMK AO2 RAB1558E23 P0003 T01610144
KTYR 131600Z 16012G17KT 6SM -RA BR BKN011 OVC039 16/14 A2976 RMK AO2 RAB1558 P0003 T01560139
KTYR 131553Z 15009G18KT 10SM OVC008 16/14 A2976 RMK AO2 RAE08 SLP072 P0000 T01560139
KTYR 131503Z 14013G21KT 10SM -RA OVC008 16/14 A2975 RMK AO2 P0000 T01560139
KTYR 131453Z 15015G26KT 10SM -RA SCT011 OVC039 16/14 A2975 RMK AO2 PK WND 14026/1451 RAB12 SLP071 P0004 60004 T01560144 51003
KTYR 131451Z 14020G26KT 10SM -RA SCT009 OVC039 16/14 A2975 RMK AO2 PK WND 14026/1451 RAB12 P0004
KTYR 131353Z 15012KT 10SM BKN009 OVC013 16/14 A2975 RMK AO2 CIG 006V012 SLP071 T01560139
KTYR 131253Z 15013KT 10SM OVC007 16/14 A2974 RMK AO2 CIG 006V012 SLP068 T01560139
KTYR 131153Z AUTO 15016G21KT 10SM OVC008 16/14 A2974 RMK AO2 CIG 006V011 SLP066 60001 70001 T01560139 10167 20150 55018
KTYR 131121Z AUTO 15010KT 10SM BKN008 BKN012 OVC028 16/14 A2973 RMK AO2 LTG DSNT E AND SE CIG 007V011 T01560139
KTYR 131053Z AUTO 16012KT 10SM FEW007 BKN027 BKN045 15/14 A2973 RMK AO2 LTG DSNT SE AND S SLP062 T01500139
KTYR 131046Z AUTO 15013KT 10SM FEW007 BKN026 15/14 A2972 RMK AO2 LTG DSNT SE AND S T01500139
KTYR 131039Z AUTO 14013KT 10SM FEW007 SCT026 BKN036 15/14 A2972 RMK AO2 LTG DSNT SE AND S T01500139
KTYR 131023Z AUTO 14012KT 10SM FEW022 SCT029 BKN036 15/14 A2971 RMK AO2 T01500139
KTYR 130953Z AUTO 13007KT 10SM SCT014 OVC021 16/14 A2974 RMK AO2 RAB0854E38 PRESFR SLP068 P0001 T01560139
KTYR 130919Z AUTO 16005KT 10SM -RA BKN021 OVC038 16/14 A2977 RMK AO2 LTG DSNT N-SE RAB0854 P0000 T01560139
KTYR 130853Z AUTO 16007KT 10SM VCTS BKN019 OVC025 16/14 A2979 RMK AO2 LTG DSNT N RAB34E53 SLP084 P0000 60000 T01610139 56016
KTYR 130834Z AUTO 17008KT 10SM VCTS -RA BKN018 OVC025 16/14 A2981 RMK AO2 LTG DSNT S RAB34 P0000 T01610139
KTYR 130753Z AUTO 17010KT 10SM BKN019 OVC027 17/14 A2982 RMK AO2 SLP093 T01670139